Time;durP1;ratioP1;P1;durP2;ratioP2;P2;SDS_P1;SDS_P2;PMS_P1;PMS_P2;Temp;Humidity;BMP_temperature;BMP_pressure;BME280_temperature;BME280_humidity;BME280_pressure;Samples;Min_cycle;Max_cycle;Signal;HPM_P1;HPM_P2
2022/10/26 00:00:09;;;;;;;12.57;9.13;;;9.00;99.90;;;;;;2072436;28;20033;-71
2022/10/26 00:01:15;;;;;;;14.88;10.48;;;9.00;99.90;;;;;;2073269;28;20029;-71
2022/10/26 00:02:15;;;;;;;11.88;9.98;;;9.10;99.90;;;;;;2072524;28;20030;-71
2022/10/26 00:03:16;;;;;;;15.18;12.15;;;9.10;99.90;;;;;;2064300;28;20469;-71
2022/10/26 00:04:17;;;;;;;15.50;12.57;;;9.10;99.90;;;;;;2072341;28;20096;-70
2022/10/26 00:05:18;;;;;;;18.25;11.90;;;9.10;99.90;;;;;;2072937;28;20435;-71
2022/10/26 00:06:21;;;;;;;14.95;11.35;;;9.00;99.90;;;;;;2072938;28;20794;-71
2022/10/26 00:07:21;;;;;;;13.85;10.57;;;9.00;99.90;;;;;;2072422;28;20018;-70
2022/10/26 00:08:22;;;;;;;13.40;9.88;;;9.00;99.90;;;;;;2072294;28;20423;-69
2022/10/26 00:09:23;;;;;;;11.98;9.48;;;9.00;99.90;;;;;;2072946;28;20711;-70
2022/10/26 00:10:23;;;;;;;12.82;9.88;;;9.00;99.90;;;;;;2073153;28;20105;-69
2022/10/26 00:11:24;;;;;;;12.68;9.40;;;9.00;99.90;;;;;;2073004;28;20030;-70
2022/10/26 00:12:24;;;;;;;13.57;9.60;;;9.00;99.90;;;;;;2073263;28;20040;-69
2022/10/26 00:13:25;;;;;;;12.48;9.38;;;9.00;99.90;;;;;;2072925;28;20855;-69
2022/10/26 00:14:26;;;;;;;13.27;9.43;;;9.00;99.90;;;;;;2073023;28;20081;-70
2022/10/26 00:15:28;;;;;;;13.13;9.40;;;9.00;99.90;;;;;;2072541;28;20034;-70
2022/10/26 00:16:28;;;;;;;13.48;9.18;;;8.90;99.90;;;;;;2072491;28;20114;-70
2022/10/26 00:17:29;;;;;;;12.05;9.60;;;8.90;99.90;;;;;;2072414;28;20209;-69
2022/10/26 00:18:30;;;;;;;11.88;9.68;;;8.90;99.90;;;;;;2072366;28;20786;-70
2022/10/26 00:19:33;;;;;;;11.90;9.02;;;8.90;99.90;;;;;;2072539;28;20038;-70
2022/10/26 00:20:33;;;;;;;11.68;9.50;;;8.90;99.90;;;;;;2072544;28;20038;-70
2022/10/26 00:21:34;;;;;;;12.88;10.18;;;8.90;99.90;;;;;;2073350;28;20069;-69
2022/10/26 00:22:35;;;;;;;14.43;10.05;;;8.90;99.90;;;;;;2073581;28;20535;-71
2022/10/26 00:23:36;;;;;;;12.60;9.15;;;8.90;99.90;;;;;;2072812;28;20125;-69
2022/10/26 00:24:36;;;;;;;12.85;9.52;;;8.90;99.90;;;;;;2072461;28;20104;-69
2022/10/26 00:25:37;;;;;;;12.88;9.52;;;8.90;99.90;;;;;;2072681;28;20052;-69
2022/10/26 00:26:38;;;;;;;13.45;8.93;;;8.90;99.90;;;;;;2073120;28;20041;-70
2022/10/26 00:27:39;;;;;;;12.43;9.40;;;8.90;99.90;;;;;;2073000;28;20531;-71
2022/10/26 00:28:40;;;;;;;15.48;10.20;;;8.90;99.90;;;;;;2072796;28;20104;-71
2022/10/26 00:29:40;;;;;;;14.27;9.60;;;8.90;99.90;;;;;;2072297;28;20100;-69
2022/10/26 00:30:41;;;;;;;14.82;9.88;;;8.90;99.90;;;;;;2072263;28;20591;-72
2022/10/26 00:31:41;;;;;;;13.80;9.60;;;8.90;99.90;;;;;;2072872;28;20014;-70
2022/10/26 00:32:42;;;;;;;13.10;9.10;;;8.90;99.90;;;;;;2072632;28;20508;-69
2022/10/26 00:33:43;;;;;;;11.68;8.82;;;8.90;99.90;;;;;;2072091;28;20057;-72
2022/10/26 00:34:44;;;;;;;11.32;8.98;;;8.90;99.90;;;;;;2071907;28;20036;-69
2022/10/26 00:35:51;;;;;;;16.08;9.65;;;8.90;99.90;;;;;;2064098;28;20759;-71
2022/10/26 00:36:52;;;;;;;11.18;9.18;;;8.90;99.90;;;;;;2065031;28;20033;-69
2022/10/26 00:37:54;;;;;;;12.77;9.55;;;8.90;99.90;;;;;;2072305;28;20042;-71
2022/10/26 00:38:56;;;;;;;12.85;9.38;;;8.90;99.90;;;;;;2072403;28;20175;-70
2022/10/26 00:39:56;;;;;;;11.52;9.52;;;8.80;99.90;;;;;;2072228;28;20033;-71
2022/10/26 00:40:57;;;;;;;11.98;9.40;;;8.80;99.90;;;;;;2072016;28;20040;-71
2022/10/26 00:41:58;;;;;;;12.80;9.45;;;8.80;99.90;;;;;;2071861;28;20038;-71
2022/10/26 00:43:00;;;;;;;13.02;9.38;;;8.80;99.90;;;;;;2072010;28;20611;-69
2022/10/26 00:44:01;;;;;;;12.20;9.10;;;8.80;99.90;;;;;;2072491;28;20026;-69
2022/10/26 00:45:20;;;;;;;10.88;9.52;;;8.80;99.90;;;;;;2071696;28;20030;-69
2022/10/26 00:46:25;;;;;;;12.32;9.43;;;8.80;99.90;;;;;;2072314;28;20125;-70
2022/10/26 00:47:32;;;;;;;12.13;9.00;;;8.80;99.90;;;;;;2071941;28;20475;-70
2022/10/26 00:48:37;;;;;;;12.63;9.43;;;8.80;99.90;;;;;;2072087;28;20034;-69
2022/10/26 00:49:38;;;;;;;11.43;9.43;;;8.80;99.90;;;;;;2072238;28;20030;-70
2022/10/26 00:50:43;;;;;;;12.93;9.45;;;8.80;99.90;;;;;;2072064;28;20483;-69
2022/10/26 00:51:49;;;;;;;10.80;8.88;;;8.70;99.90;;;;;;2064406;28;20034;-69
2022/10/26 00:52:51;;;;;;;14.05;8.73;;;8.70;99.90;;;;;;2064667;28;20027;-70
2022/10/26 00:53:54;;;;;;;11.02;8.60;;;8.70;99.90;;;;;;2072252;28;20129;-70
2022/10/26 00:54:55;;;;;;;12.60;8.73;;;8.70;99.90;;;;;;2071752;28;20112;-70
2022/10/26 00:55:56;;;;;;;10.18;8.40;;;8.70;99.90;;;;;;2072096;28;20488;-70
2022/10/26 00:56:56;;;;;;;9.95;8.32;;;8.70;99.90;;;;;;2072583;28;20038;-70
2022/10/26 00:57:58;;;;;;;11.07;8.10;;;8.70;99.90;;;;;;2073700;28;20034;-70
2022/10/26 00:59:06;;;;;;;10.15;8.10;;;8.70;99.90;;;;;;2074317;28;20038;-69
2022/10/26 01:00:07;;;;;;;11.23;8.02;;;8.70;99.90;;;;;;2073919;28;20115;-70
2022/10/26 01:01:08;;;;;;;12.27;8.25;;;8.70;99.90;;;;;;2073636;28;20105;-70
2022/10/26 01:02:09;;;;;;;11.68;8.40;;;8.60;99.90;;;;;;2072878;28;20034;-70
2022/10/26 01:03:10;;;;;;;10.63;8.27;;;8.60;99.90;;;;;;2072824;28;20042;-71
2022/10/26 01:04:12;;;;;;;11.48;8.23;;;8.60;99.90;;;;;;2072569;28;20038;-71
2022/10/26 01:05:15;;;;;;;12.43;8.23;;;8.60;99.90;;;;;;2072391;28;20037;-70
2022/10/26 01:06:15;;;;;;;11.20;8.48;;;8.60;99.90;;;;;;2071807;28;20026;-70
2022/10/26 01:07:16;;;;;;;12.43;8.35;;;8.60;99.90;;;;;;2071802;28;20022;-70
2022/10/26 01:08:17;;;;;;;13.75;8.30;;;8.60;99.90;;;;;;2071762;28;20776;-71
2022/10/26 01:09:19;;;;;;;11.20;7.85;;;8.70;99.90;;;;;;2063623;28;20032;-70
2022/10/26 01:10:21;;;;;;;10.80;8.43;;;8.70;99.90;;;;;;2071877;28;20844;-71
2022/10/26 01:11:22;;;;;;;13.30;8.25;;;8.70;99.90;;;;;;2071604;28;20092;-71
2022/10/26 01:12:22;;;;;;;10.85;8.20;;;8.70;99.90;;;;;;2072113;28;20111;-70
2022/10/26 01:13:27;;;;;;;9.48;7.88;;;8.70;99.90;;;;;;2072435;28;20103;-71
2022/10/26 01:14:28;;;;;;;10.00;8.00;;;8.70;99.90;;;;;;2071412;28;20029;-68
2022/10/26 01:15:55;;;;;;;10.95;8.32;;;8.60;99.90;;;;;;2071648;28;20030;-70
2022/10/26 01:17:34;;;;;;;10.95;7.90;;;8.60;99.90;;;;;;2072222;28;20072;-70
2022/10/26 01:18:49;;;;;;;11.75;8.80;;;8.60;99.90;;;;;;2072576;28;20037;-71
2022/10/26 01:20:18;;;;;;;13.45;9.30;;;8.60;99.90;;;;;;2073475;28;20196;-71
2022/10/26 01:21:45;;;;;;;13.82;9.85;;;8.60;99.90;;;;;;2074073;28;20423;-71
2022/10/26 01:23:07;;;;;;;14.32;10.02;;;8.50;99.90;;;;;;2073776;28;20440;-72
2022/10/26 01:24:47;;;;;;;14.85;9.75;;;8.50;99.90;;;;;;2072409;28;20120;-71
2022/10/26 01:25:48;;;;;;;15.13;10.32;;;8.50;99.90;;;;;;2072512;28;20440;-71
2022/10/26 01:27:00;;;;;;;13.57;9.57;;;8.50;99.90;;;;;;2073481;28;20176;-69
2022/10/26 01:28:05;;;;;;;14.45;10.00;;;8.50;99.90;;;;;;2073809;28;20116;-69
2022/10/26 01:29:34;;;;;;;14.10;9.90;;;8.50;99.90;;;;;;2074791;28;20033;-71
2022/10/26 01:30:39;;;;;;;13.20;9.68;;;8.50;99.90;;;;;;2063374;28;20578;-70
2022/10/26 01:31:51;;;;;;;12.25;9.30;;;8.50;99.90;;;;;;2072402;28;20017;-69
2022/10/26 01:33:17;;;;;;;13.35;9.07;;;8.40;99.90;;;;;;2072853;28;20083;-71
2022/10/26 01:34:31;;;;;;;11.40;8.60;;;8.40;99.90;;;;;;2072535;28;20139;-71
2022/10/26 01:35:59;;;;;;;10.90;8.43;;;8.40;99.90;;;;;;2072796;28;20022;-71
2022/10/26 01:37:10;;;;;;;11.13;8.30;;;8.40;99.90;;;;;;2072563;28;20113;-70
2022/10/26 01:38:50;;;;;;;10.00;7.90;;;8.40;99.90;;;;;;2072525;28;20018;-71
2022/10/26 01:40:01;;;;;;;11.90;8.15;;;8.40;99.90;;;;;;2072906;28;20041;-70
2022/10/26 01:41:31;;;;;;;13.02;7.97;;;8.40;99.90;;;;;;2072450;28;20028;-70
2022/10/26 01:42:35;;;;;;;11.15;7.82;;;8.40;99.90;;;;;;2071752;28;20484;-71
2022/10/26 01:43:41;;;;;;;10.57;7.72;;;8.40;99.90;;;;;;2072305;28;20392;-70
2022/10/26 01:44:46;;;;;;;11.40;8.00;;;8.40;99.90;;;;;;2072025;28;20108;-71
2022/10/26 01:45:52;;;;;;;9.95;7.40;;;8.40;99.90;;;;;;2071665;28;20135;-73
2022/10/26 01:49:22;;;;;;;10.90;8.10;;;8.40;99.90;;;;;;2072141;28;20033;-70
2022/10/26 01:50:23;;;;;;;9.60;7.45;;;8.30;99.90;;;;;;2072077;28;20041;-72
2022/10/26 01:51:26;;;;;;;10.10;7.63;;;8.30;99.90;;;;;;2072197;28;20073;-71
2022/10/26 01:52:27;;;;;;;10.50;7.57;;;8.30;99.90;;;;;;2072094;28;20037;-72
2022/10/26 01:53:28;;;;;;;11.02;7.88;;;8.30;99.90;;;;;;2072037;28;20025;-72
2022/10/26 01:54:29;;;;;;;10.15;7.32;;;8.30;99.90;;;;;;2072019;28;20030;-72
2022/10/26 01:55:42;;;;;;;10.23;7.78;;;8.30;99.90;;;;;;2071959;28;20409;-71
2022/10/26 01:56:48;;;;;;;10.63;7.88;;;8.30;99.90;;;;;;2071129;28;20038;-72
2022/10/26 01:57:51;;;;;;;10.55;8.23;;;8.30;99.90;;;;;;2064124;28;20412;-71
2022/10/26 01:59:10;;;;;;;13.77;8.25;;;8.30;99.90;;;;;;2071151;28;20061;-71
2022/10/26 02:00:12;;;;;;;12.43;8.40;;;8.30;99.90;;;;;;2071516;28;20388;-69
2022/10/26 02:01:35;;;;;;;12.90;8.88;;;8.30;99.90;;;;;;2072107;28;20373;-71
2022/10/26 02:03:18;;;;;;;13.02;8.35;;;8.40;99.90;;;;;;2071989;28;20030;-72
2022/10/26 02:04:34;;;;;;;9.15;7.28;;;8.40;99.90;;;;;;2046620;29;20071;-72
2022/10/26 02:05:57;;;;;;;10.43;7.65;;;8.40;99.90;;;;;;2046833;29;20031;-72
2022/10/26 02:07:40;;;;;;;12.23;7.88;;;8.30;99.90;;;;;;2064823;28;20064;-71
2022/10/26 02:08:49;;;;;;;10.68;7.70;;;8.30;99.90;;;;;;2071781;28;20025;-72
2022/10/26 02:10:13;;;;;;;10.63;7.65;;;8.20;99.90;;;;;;2072080;28;20412;-71
2022/10/26 02:11:41;;;;;;;9.90;7.95;;;8.20;99.90;;;;;;2063697;28;20046;-71
2022/10/26 02:13:00;;;;;;;11.43;8.10;;;8.20;99.90;;;;;;2071830;28;20473;-72
2022/10/26 02:14:19;;;;;;;13.20;7.90;;;8.20;99.90;;;;;;2071549;28;20084;-70
2022/10/26 02:15:25;;;;;;;10.02;8.02;;;8.20;99.90;;;;;;2072028;28;20550;-71
2022/10/26 02:16:26;;;;;;;10.55;7.70;;;8.10;99.90;;;;;;2071830;28;20026;-72
2022/10/26 02:17:35;;;;;;;10.63;7.93;;;8.20;99.90;;;;;;2071719;28;20062;-71
2022/10/26 02:18:53;;;;;;;10.13;7.57;;;8.20;99.90;;;;;;2071289;28;20030;-71
2022/10/26 02:20:05;;;;;;;10.82;7.60;;;8.20;99.90;;;;;;2071590;28;20044;-71
2022/10/26 02:21:23;;;;;;;10.77;7.80;;;8.20;99.90;;;;;;2071294;28;20116;-71
2022/10/26 02:22:27;;;;;;;9.77;7.88;;;8.10;99.90;;;;;;2071331;28;20044;-70
2022/10/26 02:23:29;;;;;;;9.38;7.30;;;8.10;99.90;;;;;;2072109;28;20072;-71
2022/10/26 02:24:31;;;;;;;9.50;7.65;;;8.10;99.90;;;;;;2071069;28;20065;-71
2022/10/26 02:25:39;;;;;;;9.82;7.55;;;8.10;99.90;;;;;;2071241;28;20026;-71
2022/10/26 02:26:42;;;;;;;11.13;8.02;;;8.10;99.90;;;;;;2071514;28;20030;-71
2022/10/26 02:27:49;;;;;;;13.52;8.20;;;8.00;99.90;;;;;;2071697;28;20034;-71
2022/10/26 02:28:54;;;;;;;10.73;7.93;;;8.10;99.90;;;;;;2071275;28;20564;-71
2022/10/26 02:30:03;;;;;;;10.60;7.88;;;8.00;99.90;;;;;;2071380;28;20026;-71
2022/10/26 02:33:29;;;;;;;10.82;7.72;;;8.10;99.90;;;;;;2071579;28;20614;-71
2022/10/26 02:34:32;;;;;;;10.23;7.85;;;8.10;99.90;;;;;;2071562;28;20030;-71
2022/10/26 02:35:36;;;;;;;9.85;7.88;;;8.10;99.90;;;;;;2071604;28;20041;-71
2022/10/26 02:36:41;;;;;;;13.30;8.25;;;8.10;99.90;;;;;;2071670;28;20165;-70
2022/10/26 02:37:45;;;;;;;10.63;7.88;;;8.10;99.90;;;;;;2071800;28;20037;-71
2022/10/26 02:38:47;;;;;;;13.43;8.02;;;8.10;99.90;;;;;;2071763;28;20025;-71
2022/10/26 02:42:14;;;;;;;11.35;8.25;;;8.10;99.90;;;;;;2071268;28;20030;-70
2022/10/26 02:45:42;;;;;;;11.25;7.75;;;8.10;99.90;;;;;;2071533;28;20083;-71
2022/10/26 02:46:43;;;;;;;11.02;7.80;;;8.00;99.90;;;;;;2071096;28;20034;-71
2022/10/26 02:47:44;;;;;;;11.30;7.80;;;8.10;99.90;;;;;;2071205;28;20157;-71
2022/10/26 02:48:50;;;;;;;12.07;8.05;;;8.00;99.90;;;;;;2071891;28;20068;-71
2022/10/26 02:50:48;;;;;;;10.73;8.15;;;8.00;99.90;;;;;;2061551;28;20593;-70
2022/10/26 02:51:54;;;;;;;10.00;7.93;;;8.00;99.90;;;;;;2054391;28;20150;-71
2022/10/26 02:53:24;;;;;;;12.13;8.15;;;7.90;99.90;;;;;;2054797;28;20185;-71
2022/10/26 02:54:33;;;;;;;12.00;8.07;;;8.00;99.90;;;;;;2054502;28;20133;-71
2022/10/26 02:55:39;;;;;;;11.35;8.13;;;7.90;99.90;;;;;;2055941;28;20043;-71
2022/10/26 02:56:55;;;;;;;10.25;7.88;;;7.90;99.90;;;;;;2062913;28;20082;-71
2022/10/26 02:58:01;;;;;;;14.07;8.80;;;7.90;99.90;;;;;;2062662;28;20041;-71
2022/10/26 02:59:04;;;;;;;12.55;8.50;;;8.00;99.90;;;;;;2062476;28;20103;-71
2022/10/26 03:00:18;;;;;;;15.07;8.50;;;8.00;99.90;;;;;;2062334;28;20049;-71
2022/10/26 03:01:19;;;;;;;13.18;8.32;;;8.00;99.90;;;;;;2062261;28;20038;-72
2022/10/26 03:02:21;;;;;;;10.70;8.20;;;8.00;99.90;;;;;;2062390;28;20126;-70
2022/10/26 03:03:21;;;;;;;10.68;8.18;;;8.00;99.90;;;;;;2062288;28;20104;-71
2022/10/26 03:04:31;;;;;;;10.65;8.07;;;8.00;99.90;;;;;;2054219;28;20188;-71
2022/10/26 03:05:32;;;;;;;10.55;7.88;;;8.00;99.90;;;;;;2054389;28;20031;-72
2022/10/26 03:06:32;;;;;;;10.57;8.13;;;8.00;99.90;;;;;;2054370;28;20121;-71
2022/10/26 03:07:33;;;;;;;14.23;8.50;;;8.00;99.90;;;;;;2054452;28;20042;-71
2022/10/26 03:08:34;;;;;;;11.43;8.05;;;7.90;99.90;;;;;;2054286;28;20083;-70
2022/10/26 03:09:34;;;;;;;11.05;8.52;;;8.00;99.90;;;;;;2046061;29;20087;-71
2022/10/26 03:10:41;;;;;;;12.43;7.97;;;8.00;99.90;;;;;;2046425;29;20045;-72
2022/10/26 03:11:43;;;;;;;12.73;8.30;;;8.00;99.90;;;;;;2047187;28;20019;-72
2022/10/26 03:12:44;;;;;;;10.02;8.10;;;8.00;99.90;;;;;;2054642;28;20026;-70
2022/10/26 03:13:45;;;;;;;13.18;8.38;;;7.90;99.90;;;;;;2062515;28;20034;-71
2022/10/26 03:14:45;;;;;;;10.13;7.90;;;7.90;99.90;;;;;;2062386;28;20037;-71
2022/10/26 03:15:46;;;;;;;10.63;7.57;;;7.90;99.90;;;;;;2062082;28;20690;-71
2022/10/26 03:16:47;;;;;;;11.43;8.15;;;7.90;99.90;;;;;;2054211;28;20093;-71
2022/10/26 03:17:47;;;;;;;9.30;7.78;;;7.90;99.90;;;;;;2054419;28;20106;-71
2022/10/26 03:18:48;;;;;;;13.00;8.02;;;7.90;99.90;;;;;;2062512;28;20034;-70
2022/10/26 03:19:48;;;;;;;11.93;8.45;;;7.90;99.90;;;;;;2054190;28;20031;-74
2022/10/26 03:20:49;;;;;;;10.32;8.25;;;7.90;99.90;;;;;;2054390;28;20797;-71
2022/10/26 03:21:50;;;;;;;8.88;7.47;;;7.90;99.90;;;;;;2068853;28;20041;-71
2022/10/26 03:22:50;;;;;;;11.32;8.00;;;7.90;99.90;;;;;;2070936;28;20504;-71
2022/10/26 03:23:51;;;;;;;11.68;8.30;;;7.90;99.90;;;;;;2071077;28;20808;-71
2022/10/26 03:24:51;;;;;;;9.48;7.63;;;7.90;99.90;;;;;;2070897;28;20034;-71
2022/10/26 03:25:58;;;;;;;10.95;8.00;;;7.80;99.90;;;;;;2071446;28;20057;-71
2022/10/26 03:26:59;;;;;;;11.55;8.13;;;7.80;99.90;;;;;;2064159;28;20034;-71
2022/10/26 03:28:02;;;;;;;9.50;7.68;;;7.90;99.90;;;;;;2071672;28;20106;-71
2022/10/26 03:29:03;;;;;;;11.35;8.15;;;7.80;99.90;;;;;;2072044;28;20018;-71
2022/10/26 03:30:04;;;;;;;11.80;8.15;;;7.90;99.90;;;;;;2072255;28;20439;-71
2022/10/26 03:31:05;;;;;;;14.32;8.50;;;7.80;99.90;;;;;;2072260;28;20058;-71
2022/10/26 03:32:06;;;;;;;13.80;8.63;;;7.90;99.90;;;;;;2072250;28;20392;-71
2022/10/26 03:33:07;;;;;;;12.85;8.60;;;7.90;99.90;;;;;;2071879;28;20454;-71
2022/10/26 03:34:07;;;;;;;12.40;8.35;;;7.90;99.90;;;;;;2070621;28;20104;-72
2022/10/26 03:35:08;;;;;;;10.75;8.43;;;7.90;99.90;;;;;;2071997;28;20092;-73
2022/10/26 03:36:12;;;;;;;11.70;8.60;;;7.80;99.90;;;;;;2072434;28;20037;-70
2022/10/26 03:39:28;;;;;;;12.50;8.68;;;7.80;99.90;;;;;;2072969;28;20025;-71
2022/10/26 03:40:28;;;;;;;11.35;8.50;;;7.80;99.90;;;;;;2073159;28;20025;-71
2022/10/26 03:41:29;;;;;;;10.82;8.50;;;7.80;99.90;;;;;;2072855;28;20060;-71
2022/10/26 03:42:35;;;;;;;12.82;8.40;;;7.80;99.90;;;;;;2072661;28;20128;-72
2022/10/26 03:43:35;;;;;;;12.57;8.73;;;7.80;99.90;;;;;;2072233;28;20026;-72
2022/10/26 03:44:36;;;;;;;11.73;8.40;;;7.80;99.90;;;;;;2064333;28;20068;-71
2022/10/26 03:45:36;;;;;;;11.50;8.63;;;7.80;99.90;;;;;;2064414;28;20030;-71
2022/10/26 03:49:36;;;;;;;10.82;8.25;;;7.80;99.90;;;;;;2072455;28;20045;-72
2022/10/26 03:50:37;;;;;;;14.13;8.25;;;7.80;99.90;;;;;;2072657;28;20108;-71
2022/10/26 03:53:59;;;;;;;11.52;7.93;;;7.70;99.90;;;;;;2072779;28;20038;-72
2022/10/26 03:57:22;;;;;;;12.30;9.10;;;7.70;99.90;;;;;;2072987;28;20072;-72
2022/10/26 04:00:49;;;;;;;14.45;9.13;;;7.60;99.90;;;;;;2072799;28;20025;-71
2022/10/26 04:01:49;;;;;;;12.60;8.57;;;7.60;99.90;;;;;;2072311;28;20030;-72
2022/10/26 04:02:59;;;;;;;13.77;8.52;;;7.60;99.90;;;;;;2064290;28;20026;-72
2022/10/26 04:04:00;;;;;;;11.43;8.75;;;7.60;99.90;;;;;;2072472;28;20036;-70
2022/10/26 04:05:00;;;;;;;10.93;8.52;;;7.60;99.90;;;;;;2072992;28;20022;-73
2022/10/26 04:13:10;;;;;;;14.70;9.70;;;7.70;99.90;;;;;;2073033;28;20121;-72
2022/10/26 04:14:11;;;;;;;13.73;8.98;;;7.70;99.90;;;;;;2072345;28;20037;-72
2022/10/26 04:17:33;;;;;;;14.95;9.65;;;7.60;99.90;;;;;;2073156;28;20124;-73
2022/10/26 04:18:34;;;;;;;16.42;9.73;;;7.70;99.90;;;;;;2073546;28;20495;-72
2022/10/26 04:19:35;;;;;;;12.43;9.10;;;7.70;99.90;;;;;;2073227;28;20121;-72
2022/10/26 04:22:56;;;;;;;12.75;9.32;;;7.60;99.90;;;;;;2073058;28;20033;-73
2022/10/26 04:23:56;;;;;;;13.90;9.25;;;7.60;99.90;;;;;;2072904;28;20092;-72
2022/10/26 04:24:57;;;;;;;13.52;9.35;;;7.50;99.90;;;;;;2072466;28;20084;-73
2022/10/26 04:25:58;;;;;;;14.85;9.80;;;7.50;99.90;;;;;;2072108;28;20029;-73
2022/10/26 04:26:58;;;;;;;13.30;9.05;;;7.50;99.90;;;;;;2072749;28;20131;-73
2022/10/26 04:28:00;;;;;;;12.77;8.73;;;7.50;99.90;;;;;;2073154;28;20744;-73
2022/10/26 04:29:03;;;;;;;14.88;8.93;;;7.50;99.90;;;;;;2073395;28;20026;-72
2022/10/26 04:30:07;;;;;;;14.95;9.07;;;7.50;99.90;;;;;;2073443;28;20125;-73
2022/10/26 04:31:07;;;;;;;11.90;9.07;;;7.50;99.90;;;;;;2071844;28;20068;-73
2022/10/26 04:32:08;;;;;;;12.93;9.25;;;7.50;99.90;;;;;;2072108;28;20068;-73
2022/10/26 04:33:09;;;;;;;12.82;9.15;;;7.50;99.90;;;;;;2072127;28;20036;-73
2022/10/26 04:34:09;;;;;;;14.75;9.40;;;7.50;99.90;;;;;;2072145;28;20099;-73
2022/10/26 04:35:10;;;;;;;13.00;9.38;;;7.40;99.90;;;;;;2072870;28;20043;-73
2022/10/26 04:36:11;;;;;;;12.10;9.60;;;7.40;99.90;;;;;;2073094;28;20022;-73
2022/10/26 04:37:11;;;;;;;13.30;9.30;;;7.40;99.90;;;;;;2072930;28;20080;-73
2022/10/26 04:38:12;;;;;;;14.88;10.38;;;7.40;99.90;;;;;;2072399;28;20040;-72
2022/10/26 04:39:13;;;;;;;14.27;10.10;;;7.40;99.90;;;;;;2072749;28;20038;-72
2022/10/26 04:40:13;;;;;;;13.85;10.10;;;7.50;99.90;;;;;;2072021;28;20046;-73
2022/10/26 04:41:14;;;;;;;14.43;9.43;;;7.50;99.90;;;;;;2072128;28;20484;-73
2022/10/26 04:42:15;;;;;;;12.80;9.50;;;7.50;99.90;;;;;;2073051;28;20034;-73
2022/10/26 04:43:16;;;;;;;12.52;9.38;;;7.50;99.90;;;;;;2072539;28;20098;-73
2022/10/26 04:44:16;;;;;;;12.90;9.27;;;7.40;99.90;;;;;;2072356;28;20111;-73
2022/10/26 04:45:17;;;;;;;14.93;9.27;;;7.40;99.90;;;;;;2072310;28;20086;-74
2022/10/26 04:46:18;;;;;;;13.45;9.20;;;7.40;99.90;;;;;;2071677;28;20026;-73
2022/10/26 04:47:18;;;;;;;13.82;9.63;;;7.40;99.90;;;;;;2072378;28;20080;-74
2022/10/26 04:48:19;;;;;;;12.95;9.50;;;7.40;99.90;;;;;;2072364;28;20034;-73
2022/10/26 04:49:19;;;;;;;14.75;9.80;;;7.40;99.90;;;;;;2072420;28;20054;-73
2022/10/26 04:50:20;;;;;;;12.55;9.60;;;7.40;99.90;;;;;;2072181;28;20575;-72
2022/10/26 04:51:21;;;;;;;15.02;9.77;;;7.40;99.90;;;;;;2072089;28;20033;-73
2022/10/26 04:52:21;;;;;;;13.80;9.85;;;7.40;99.90;;;;;;2072252;28;20036;-73
2022/10/26 04:53:22;;;;;;;13.98;10.13;;;7.40;99.90;;;;;;2063708;28;20030;-73
2022/10/26 04:54:23;;;;;;;13.23;9.93;;;7.30;99.90;;;;;;2063892;28;20035;-74
2022/10/26 04:55:24;;;;;;;13.48;9.70;;;7.30;99.90;;;;;;2080128;28;20124;-73
2022/10/26 04:56:24;;;;;;;14.25;10.15;;;7.30;99.90;;;;;;2080379;28;20124;-73
2022/10/26 04:57:25;;;;;;;15.18;10.45;;;7.30;99.90;;;;;;2072006;28;20041;-73
2022/10/26 04:58:27;;;;;;;13.82;10.20;;;7.30;99.90;;;;;;2072012;28;20038;-73
2022/10/26 04:59:27;;;;;;;11.85;9.65;;;7.30;99.90;;;;;;2072816;28;20042;-71
2022/10/26 05:00:31;;;;;;;14.07;9.70;;;7.30;99.90;;;;;;2072176;28;20167;-72
2022/10/26 05:01:32;;;;;;;13.00;9.90;;;7.40;99.90;;;;;;2072010;28;20505;-71
2022/10/26 05:02:32;;;;;;;13.68;9.48;;;7.40;99.90;;;;;;2071628;28;20029;-72
2022/10/26 05:03:33;;;;;;;15.90;10.00;;;7.30;99.90;;;;;;2071774;28;20034;-72
2022/10/26 05:04:33;;;;;;;14.15;9.35;;;7.30;99.90;;;;;;2071587;28;20041;-71
2022/10/26 05:05:36;;;;;;;14.30;10.10;;;7.30;99.90;;;;;;2072510;28;20022;-72
2022/10/26 05:06:37;;;;;;;14.50;10.18;;;7.30;99.90;;;;;;2071369;28;20044;-72
2022/10/26 05:07:37;;;;;;;17.98;10.43;;;7.30;99.90;;;;;;2072080;28;20693;-71
2022/10/26 05:08:38;;;;;;;12.52;9.70;;;7.30;99.90;;;;;;2071962;28;20538;-72
2022/10/26 05:09:38;;;;;;;13.68;9.40;;;7.30;99.90;;;;;;2063993;28;20034;-72
2022/10/26 05:10:40;;;;;;;13.57;9.88;;;7.30;99.90;;;;;;2071636;28;20073;-71
2022/10/26 05:11:40;;;;;;;13.85;9.68;;;7.30;99.90;;;;;;2072565;28;20088;-72
2022/10/26 05:12:41;;;;;;;13.95;9.63;;;7.30;99.90;;;;;;2071783;28;20026;-72
2022/10/26 05:13:41;;;;;;;11.98;9.40;;;7.30;99.90;;;;;;2072071;28;20025;-75
2022/10/26 05:14:42;;;;;;;12.27;9.90;;;7.20;99.90;;;;;;2071839;28;20049;-72
2022/10/26 05:15:42;;;;;;;13.43;10.05;;;7.20;99.90;;;;;;2074934;28;20029;-72
2022/10/26 05:16:43;;;;;;;14.50;10.02;;;7.20;99.90;;;;;;2072642;28;20638;-72
2022/10/26 05:17:44;;;;;;;13.00;9.93;;;7.20;99.90;;;;;;2072921;28;20084;-72
2022/10/26 05:18:48;;;;;;;16.63;9.90;;;7.20;99.90;;;;;;2072716;28;20029;-72
2022/10/26 05:19:54;;;;;;;12.77;9.48;;;7.20;99.90;;;;;;2072388;28;20057;-72
2022/10/26 05:20:54;;;;;;;13.90;9.90;;;7.20;99.90;;;;;;2072476;28;20026;-72
2022/10/26 05:21:55;;;;;;;13.90;10.45;;;7.20;99.90;;;;;;2080125;28;20045;-72
2022/10/26 05:22:57;;;;;;;17.20;10.40;;;7.20;99.90;;;;;;2079961;28;20503;-72
2022/10/26 05:23:58;;;;;;;13.85;10.63;;;7.20;99.90;;;;;;2072514;28;20443;-72
2022/10/26 05:24:59;;;;;;;14.25;10.52;;;7.20;99.90;;;;;;2071720;28;20038;-72
2022/10/26 05:25:59;;;;;;;15.15;11.50;;;7.30;99.90;;;;;;2071352;28;20042;-71
2022/10/26 05:27:00;;;;;;;15.88;10.98;;;7.30;99.90;;;;;;2071536;28;20097;-71
2022/10/26 05:28:03;;;;;;;14.13;10.93;;;7.30;99.90;;;;;;2071866;28;20049;-71
2022/10/26 05:29:03;;;;;;;15.10;11.05;;;7.30;99.90;;;;;;2063719;28;20137;-74
2022/10/26 05:30:04;;;;;;;14.93;11.57;;;7.30;99.90;;;;;;2063795;28;20034;-71
2022/10/26 05:31:05;;;;;;;15.10;10.98;;;7.30;99.90;;;;;;2071548;28;20034;-71
2022/10/26 05:32:05;;;;;;;19.38;12.07;;;7.20;99.90;;;;;;2071686;28;20076;-71
2022/10/26 05:33:09;;;;;;;22.58;12.38;;;7.30;99.90;;;;;;2071719;28;20563;-72
2022/10/26 05:34:09;;;;;;;16.67;11.93;;;7.40;99.90;;;;;;2071473;28;20025;-71
2022/10/26 05:35:10;;;;;;;17.10;12.00;;;7.40;99.90;;;;;;2070962;28;20487;-72
2022/10/26 05:36:10;;;;;;;15.18;11.38;;;7.50;99.90;;;;;;2067482;28;20030;-72
2022/10/26 05:37:11;;;;;;;17.55;11.68;;;7.40;99.90;;;;;;2067426;28;20070;-71
2022/10/26 05:38:14;;;;;;;15.90;10.82;;;7.50;99.90;;;;;;2071557;28;20025;-71
2022/10/26 05:39:18;;;;;;;14.90;10.98;;;7.50;99.90;;;;;;2071311;28;20061;-71
2022/10/26 05:40:19;;;;;;;16.75;11.57;;;7.50;99.90;;;;;;2058286;28;20541;-71
2022/10/26 05:41:20;;;;;;;15.50;11.18;;;7.50;99.90;;;;;;2060467;28;20034;-71
2022/10/26 05:42:21;;;;;;;15.80;11.50;;;7.60;99.90;;;;;;2071098;28;20089;-72
2022/10/26 05:43:23;;;;;;;18.02;11.32;;;7.60;99.90;;;;;;2071182;28;20109;-70
2022/10/26 05:44:23;;;;;;;15.45;10.57;;;7.60;99.90;;;;;;2072127;28;20037;-70
2022/10/26 05:45:24;;;;;;;14.93;10.75;;;7.60;99.90;;;;;;2072599;28;20080;-73
2022/10/26 05:46:25;;;;;;;14.82;10.88;;;7.60;99.90;;;;;;2072103;28;20088;-73
2022/10/26 05:47:25;;;;;;;15.93;10.65;;;7.60;99.90;;;;;;2071637;28;20029;-70
2022/10/26 05:48:26;;;;;;;13.95;10.30;;;7.60;99.90;;;;;;2071827;28;20033;-72
2022/10/26 05:49:27;;;;;;;14.32;10.38;;;7.50;99.90;;;;;;2071659;28;20558;-69
2022/10/26 05:50:27;;;;;;;14.48;10.43;;;7.50;99.90;;;;;;2071943;28;20038;-69
2022/10/26 05:51:28;;;;;;;14.35;10.60;;;7.50;99.90;;;;;;2072959;28;20033;-70
2022/10/26 05:52:29;;;;;;;14.55;9.95;;;7.40;99.90;;;;;;2072941;28;20042;-69
2022/10/26 05:53:29;;;;;;;14.77;9.95;;;7.40;99.90;;;;;;2071915;28;20026;-71
2022/10/26 05:54:30;;;;;;;13.55;10.07;;;7.40;99.90;;;;;;2071740;28;20040;-71
2022/10/26 05:55:31;;;;;;;12.82;9.85;;;7.40;99.90;;;;;;2072051;28;20403;-71
2022/10/26 05:56:33;;;;;;;14.07;9.95;;;7.40;99.90;;;;;;2071572;28;20048;-71
2022/10/26 05:57:35;;;;;;;13.00;9.88;;;7.40;99.90;;;;;;2071190;28;20472;-71
2022/10/26 05:58:38;;;;;;;14.30;9.90;;;7.40;99.90;;;;;;2071365;28;20416;-71
2022/10/26 05:59:38;;;;;;;15.40;10.60;;;7.40;99.90;;;;;;2072608;28;20077;-71
2022/10/26 06:00:50;;;;;;;14.93;11.02;;;7.40;99.90;;;;;;2072703;28;20022;-71
2022/10/26 06:01:59;;;;;;;15.70;11.55;;;7.40;99.90;;;;;;2064087;28;20085;-71
2022/10/26 06:03:11;;;;;;;15.60;11.20;;;7.40;99.90;;;;;;2065177;28;20117;-73
2022/10/26 06:04:21;;;;;;;15.68;11.10;;;7.40;99.90;;;;;;2071679;28;20033;-71
2022/10/26 06:05:26;;;;;;;18.10;11.48;;;7.40;99.90;;;;;;2064780;28;20042;-72
2022/10/26 06:06:37;;;;;;;20.45;12.50;;;7.40;99.90;;;;;;2071461;28;20466;-74
2022/10/26 06:07:38;;;;;;;21.20;12.30;;;7.40;99.90;;;;;;2071745;28;20037;-71
2022/10/26 06:08:42;;;;;;;18.20;12.48;;;7.40;99.90;;;;;;2063528;28;20508;-73